Time;durP1;ratioP1;P1;durP2;ratioP2;P2;SDS_P1;SDS_P2;PMS_P1;PMS_P2;Temp;Humidity;BMP_temperature;BMP_pressure;BME280_temperature;BME280_humidity;BME280_pressure;Samples;Min_cycle;Max_cycle;Signal;HPM_P1;HPM_P2
2023/07/30 00:00:44;;;;;;;1.35;1.25;;;19.40;99.90;;;;;;5034309;28;20391;-79
2023/07/30 00:03:10;;;;;;;1.35;1.13;;;19.40;99.90;;;;;;5035338;28;20104;-79
2023/07/30 00:05:36;;;;;;;1.13;1.05;;;19.30;99.90;;;;;;5036109;28;20462;-80
2023/07/30 00:08:01;;;;;;;1.92;1.20;;;19.40;99.90;;;;;;5035056;28;20029;-79
2023/07/30 00:10:27;;;;;;;1.20;1.10;;;19.40;99.90;;;;;;5033705;28;20030;-78
2023/07/30 00:12:52;;;;;;;1.00;0.90;;;19.40;99.90;;;;;;5034150;28;20022;-79
2023/07/30 00:15:18;;;;;;;1.73;1.15;;;19.40;99.90;;;;;;5033160;28;20024;-78
2023/07/30 00:17:44;;;;;;;2.45;0.98;;;19.40;99.90;;;;;;5035273;28;20423;-78
2023/07/30 00:20:10;;;;;;;2.80;1.15;;;19.30;99.90;;;;;;5035521;28;20033;-79
2023/07/30 00:22:35;;;;;;;1.85;1.38;;;19.30;99.90;;;;;;5035648;28;20078;-78
2023/07/30 00:25:01;;;;;;;2.95;1.23;;;19.40;99.90;;;;;;5035569;28;20021;-78
2023/07/30 00:27:26;;;;;;;1.27;0.90;;;19.40;99.90;;;;;;5034344;28;20372;-80
2023/07/30 00:29:52;;;;;;;2.42;1.63;;;19.40;99.90;;;;;;5034834;28;20030;-80
2023/07/30 00:32:18;;;;;;;1.75;1.33;;;19.40;99.90;;;;;;5034014;28;20033;-78
2023/07/30 00:34:43;;;;;;;4.57;1.10;;;19.40;99.90;;;;;;5033751;28;20513;-78
2023/07/30 00:37:09;;;;;;;1.27;1.17;;;19.40;99.90;;;;;;5035428;28;20021;-80
2023/07/30 00:39:35;;;;;;;2.20;1.08;;;19.40;99.90;;;;;;5035052;28;20467;-80
2023/07/30 00:42:00;;;;;;;2.13;1.25;;;19.40;99.90;;;;;;5035334;28;20080;-79
2023/07/30 00:44:26;;;;;;;1.67;1.15;;;19.40;99.90;;;;;;5034333;28;20041;-78
2023/07/30 00:46:52;;;;;;;3.00;0.88;;;19.40;99.90;;;;;;5033659;28;20025;-78
2023/07/30 00:49:18;;;;;;;2.00;1.38;;;19.40;99.90;;;;;;5032789;28;20021;-79
2023/07/30 00:51:44;;;;;;;2.20;1.95;;;19.60;99.90;;;;;;5034299;28;20027;-79
2023/07/30 00:54:11;;;;;;;4.38;1.10;;;19.40;99.90;;;;;;5034785;28;20060;-78
2023/07/30 00:56:37;;;;;;;2.33;1.10;;;19.50;99.90;;;;;;5034066;28;20025;-78
2023/07/30 00:59:02;;;;;;;1.63;0.90;;;19.50;99.90;;;;;;5033984;28;20033;-78
2023/07/30 01:01:33;;;;;;;7.20;2.03;;;19.40;99.90;;;;;;5032873;28;20029;-78
2023/07/30 01:03:58;;;;;;;1.45;1.00;;;19.40;99.90;;;;;;5032587;28;20574;-78
2023/07/30 01:06:24;;;;;;;5.03;1.42;;;19.40;99.90;;;;;;5033510;28;20085;-78
2023/07/30 01:08:50;;;;;;;2.30;1.40;;;19.40;99.90;;;;;;5032407;28;20025;-78
2023/07/30 01:11:16;;;;;;;4.47;1.15;;;19.50;99.90;;;;;;5033798;28;20026;-78
2023/07/30 01:13:42;;;;;;;2.28;1.20;;;19.50;99.90;;;;;;5033806;28;20476;-78
2023/07/30 01:16:08;;;;;;;1.65;1.13;;;19.50;99.90;;;;;;5032614;28;20075;-78
2023/07/30 01:18:34;;;;;;;4.03;1.70;;;19.50;99.90;;;;;;5033974;28;20026;-79
2023/07/30 01:21:00;;;;;;;2.15;1.05;;;19.50;99.90;;;;;;5032459;28;20029;-78
2023/07/30 01:23:26;;;;;;;1.88;0.95;;;19.40;99.90;;;;;;5034203;28;20498;-79
2023/07/30 01:26:23;;;;;;;2.42;2.22;;;19.50;99.90;;;;;;5032369;28;20053;-79
2023/07/30 01:28:51;;;;;;;5.13;1.30;;;19.50;99.90;;;;;;5031352;28;20111;-78
2023/07/30 01:31:18;;;;;;;1.17;1.08;;;19.40;99.90;;;;;;5031989;28;20028;-78
2023/07/30 01:33:48;;;;;;;3.40;1.08;;;19.40;99.90;;;;;;5033421;28;20100;-79
2023/07/30 01:36:16;;;;;;;2.80;2.17;;;19.30;99.90;;;;;;5033647;28;20075;-78
2023/07/30 01:38:43;;;;;;;1.20;1.15;;;19.30;99.90;;;;;;5032537;28;20021;-79
2023/07/30 01:41:09;;;;;;;1.83;1.27;;;19.30;99.90;;;;;;5032148;28;20037;-78
2023/07/30 01:43:35;;;;;;;1.55;1.35;;;19.40;99.90;;;;;;5032121;28;20136;-78
2023/07/30 01:46:01;;;;;;;2.35;0.98;;;19.40;99.90;;;;;;5033884;28;20029;-79
2023/07/30 01:48:27;;;;;;;1.60;1.42;;;19.40;99.90;;;;;;5032114;28;20042;-78
2023/07/30 01:50:52;;;;;;;1.35;1.00;;;19.30;99.90;;;;;;5033586;28;20168;-78
2023/07/30 01:53:18;;;;;;;3.03;1.15;;;19.30;99.90;;;;;;5031750;28;20018;-78
2023/07/30 01:55:45;;;;;;;4.43;1.50;;;19.30;99.90;;;;;;5031533;28;20420;-78
2023/07/30 01:58:14;;;;;;;3.42;1.35;;;19.20;99.90;;;;;;5033131;28;20514;-78
2023/07/30 02:00:40;;;;;;;2.35;1.17;;;19.20;99.90;;;;;;5032124;28;20032;-80
2023/07/30 02:03:06;;;;;;;5.53;2.15;;;19.20;99.90;;;;;;5032953;28;20037;-79
2023/07/30 02:05:32;;;;;;;2.40;1.50;;;19.10;99.90;;;;;;5033377;28;20025;-78
2023/07/30 02:07:58;;;;;;;2.78;1.60;;;19.20;99.90;;;;;;5032121;28;20060;-78
2023/07/30 02:10:26;;;;;;;2.63;1.50;;;19.30;99.90;;;;;;5032957;28;20442;-78
2023/07/30 02:12:52;;;;;;;1.80;1.10;;;19.30;99.90;;;;;;5031390;28;20515;-79
2023/07/30 02:15:18;;;;;;;2.30;1.73;;;19.30;99.90;;;;;;5031440;28;20026;-79
2023/07/30 02:17:43;;;;;;;2.92;1.48;;;19.30;99.90;;;;;;5033611;28;20029;-78
2023/07/30 02:20:09;;;;;;;5.30;1.55;;;19.30;99.90;;;;;;5036123;28;20032;-78
2023/07/30 02:22:35;;;;;;;2.70;1.48;;;19.20;99.90;;;;;;5038277;28;20112;-79
2023/07/30 02:25:00;;;;;;;2.67;1.70;;;19.10;99.90;;;;;;5036575;28;20395;-79
2023/07/30 02:27:26;;;;;;;3.08;1.50;;;19.10;99.90;;;;;;5035861;28;20030;-79
2023/07/30 02:29:51;;;;;;;1.77;1.42;;;19.10;99.90;;;;;;5035695;28;20586;-78
2023/07/30 02:32:17;;;;;;;2.95;2.08;;;19.20;99.90;;;;;;5037405;28;20076;-78
2023/07/30 02:34:42;;;;;;;2.42;1.38;;;19.10;99.90;;;;;;5035696;28;20484;-78
2023/07/30 02:37:08;;;;;;;6.35;1.70;;;19.10;99.90;;;;;;5036119;28;20121;-79
2023/07/30 02:39:34;;;;;;;2.33;1.40;;;19.10;99.90;;;;;;5037077;28;20483;-79
2023/07/30 02:41:59;;;;;;;3.47;1.58;;;19.00;99.90;;;;;;5035373;28;20056;-79
2023/07/30 02:44:25;;;;;;;2.88;1.50;;;19.00;99.90;;;;;;5036755;28;20036;-78
2023/07/30 02:46:50;;;;;;;4.82;1.60;;;19.00;99.90;;;;;;5035474;28;20075;-79
2023/07/30 02:49:16;;;;;;;2.58;1.58;;;19.00;99.90;;;;;;5036873;28;20025;-78
2023/07/30 02:51:43;;;;;;;3.45;1.60;;;19.00;99.90;;;;;;5034928;28;20399;-79
2023/07/30 02:54:09;;;;;;;4.88;1.67;;;19.00;99.90;;;;;;5036292;28;20026;-79
2023/07/30 02:56:35;;;;;;;2.35;1.65;;;19.00;99.90;;;;;;5035628;28;20108;-78
2023/07/30 02:59:01;;;;;;;2.05;1.38;;;19.00;99.90;;;;;;5034535;28;20108;-79
2023/07/30 03:01:27;;;;;;;4.22;2.17;;;18.90;99.90;;;;;;5034625;28;20078;-79
2023/07/30 03:03:52;;;;;;;1.65;1.55;;;18.90;99.90;;;;;;5035494;28;20441;-79
2023/07/30 03:06:18;;;;;;;3.63;1.13;;;19.00;99.90;;;;;;5034782;28;20063;-79
2023/07/30 03:08:43;;;;;;;3.42;1.60;;;18.90;99.90;;;;;;5036086;28;20087;-79
2023/07/30 03:11:09;;;;;;;2.30;1.20;;;18.90;99.90;;;;;;5036271;28;20112;-78
2023/07/30 03:13:35;;;;;;;1.83;1.20;;;18.90;99.90;;;;;;5035147;28;20069;-80
2023/07/30 03:16:00;;;;;;;3.65;1.35;;;18.90;99.90;;;;;;5036602;28;20076;-79
2023/07/30 03:18:26;;;;;;;2.25;1.33;;;18.90;99.90;;;;;;5034571;28;20022;-78
2023/07/30 03:20:57;;;;;;;1.23;0.90;;;18.80;99.90;;;;;;5034391;28;20083;-79
2023/07/30 03:23:23;;;;;;;5.88;1.35;;;18.80;99.90;;;;;;5034381;28;20021;-80
2023/07/30 03:25:48;;;;;;;3.00;1.20;;;18.80;99.90;;;;;;5034596;28;20045;-78
2023/07/30 03:28:14;;;;;;;3.42;0.98;;;18.80;99.90;;;;;;5035886;28;20503;-78
2023/07/30 03:30:39;;;;;;;1.23;1.10;;;18.70;99.90;;;;;;5033530;28;20041;-78
2023/07/30 03:33:05;;;;;;;1.10;1.00;;;18.80;99.90;;;;;;5035458;28;20026;-78
2023/07/30 03:35:31;;;;;;;1.15;1.05;;;18.80;99.90;;;;;;5035031;28;20025;-78
2023/07/30 03:37:56;;;;;;;3.75;1.02;;;18.90;99.90;;;;;;5035183;28;20024;-78
2023/07/30 03:40:22;;;;;;;1.48;0.90;;;18.90;99.90;;;;;;5033772;28;20025;-78
2023/07/30 03:42:48;;;;;;;1.23;1.05;;;18.90;99.90;;;;;;5035058;28;20026;-78
2023/07/30 03:45:14;;;;;;;2.28;1.05;;;18.70;99.90;;;;;;5034836;28;20407;-79
2023/07/30 03:47:39;;;;;;;0.60;0.60;;;18.70;99.90;;;;;;5033735;28;20025;-79
2023/07/30 03:50:05;;;;;;;2.42;1.05;;;18.70;99.90;;;;;;5033261;28;20103;-79
2023/07/30 03:52:31;;;;;;;1.13;0.98;;;18.70;99.90;;;;;;5034825;28;20036;-78
2023/07/30 03:54:57;;;;;;;1.17;0.80;;;18.70;99.90;;;;;;5034890;28;20017;-78
2023/07/30 03:57:22;;;;;;;0.70;0.70;;;18.60;99.90;;;;;;5034960;28;20475;-78
2023/07/30 03:59:48;;;;;;;1.58;0.82;;;18.60;99.90;;;;;;5034581;28;20045;-78
2023/07/30 04:02:15;;;;;;;1.55;0.85;;;18.70;99.90;;;;;;5033241;28;20032;-80
2023/07/30 04:04:44;;;;;;;0.93;0.90;;;18.70;99.90;;;;;;5034814;28;20022;-78
2023/07/30 04:07:10;;;;;;;6.70;1.48;;;18.70;99.90;;;;;;5033660;28;20109;-79
2023/07/30 04:09:36;;;;;;;1.40;1.13;;;18.60;99.90;;;;;;5033251;28;20053;-79
2023/07/30 04:12:01;;;;;;;1.30;1.05;;;18.60;99.90;;;;;;5033700;28;20021;-79
2023/07/30 04:14:27;;;;;;;4.57;1.17;;;18.60;99.90;;;;;;5033546;28;20646;-79
2023/07/30 04:16:53;;;;;;;1.38;0.95;;;18.60;99.90;;;;;;5033251;28;20468;-78
2023/07/30 04:19:18;;;;;;;1.42;1.33;;;18.60;99.90;;;;;;5034436;28;20021;-79
2023/07/30 04:21:44;;;;;;;1.65;1.15;;;18.60;99.90;;;;;;5035395;28;20120;-79
2023/07/30 04:24:09;;;;;;;1.70;0.98;;;18.60;99.90;;;;;;5034660;28;20078;-78
2023/07/30 04:26:35;;;;;;;3.83;1.33;;;18.50;99.90;;;;;;5033620;28;20033;-78
2023/07/30 04:29:00;;;;;;;1.77;1.05;;;18.50;99.90;;;;;;5035399;28;20487;-78
2023/07/30 04:31:26;;;;;;;3.13;1.70;;;18.50;99.90;;;;;;5034552;28;20030;-79
2023/07/30 04:33:51;;;;;;;1.40;1.30;;;18.40;99.90;;;;;;5034602;28;20106;-78
2023/07/30 04:36:17;;;;;;;1.75;1.30;;;18.40;99.90;;;;;;5034849;28;20026;-78
2023/07/30 04:38:43;;;;;;;2.97;1.20;;;18.50;99.90;;;;;;5033345;28;20095;-79
2023/07/30 04:41:08;;;;;;;2.13;1.45;;;18.40;99.90;;;;;;5033541;28;20483;-78
2023/07/30 04:43:34;;;;;;;1.30;1.20;;;18.40;99.90;;;;;;5034177;28;20088;-78
2023/07/30 04:45:59;;;;;;;2.53;1.10;;;18.50;99.90;;;;;;5032781;28;20037;-78
2023/07/30 04:48:25;;;;;;;1.75;1.10;;;18.50;99.90;;;;;;5034324;28;20026;-79
2023/07/30 04:50:50;;;;;;;4.32;1.00;;;18.50;99.90;;;;;;5033556;28;20488;-80
2023/07/30 04:53:18;;;;;;;4.15;1.27;;;18.60;99.90;;;;;;5034380;28;20041;-79
2023/07/30 04:55:43;;;;;;;3.67;0.90;;;18.50;99.90;;;;;;5034557;28;20072;-79
2023/07/30 04:58:09;;;;;;;2.22;0.88;;;18.60;99.90;;;;;;5034184;28;20499;-79
2023/07/30 05:00:35;;;;;;;1.80;1.20;;;18.50;99.90;;;;;;5035076;28;20022;-79
2023/07/30 05:03:00;;;;;;;4.38;1.90;;;18.60;99.90;;;;;;5033166;28;20033;-79
2023/07/30 05:05:26;;;;;;;5.57;1.77;;;18.60;99.90;;;;;;5034213;28;20034;-78
2023/07/30 05:07:51;;;;;;;1.65;1.13;;;18.60;99.90;;;;;;5035424;28;20057;-79
2023/07/30 05:10:17;;;;;;;1.77;1.30;;;18.70;99.90;;;;;;5034435;28;20030;-79
2023/07/30 05:12:43;;;;;;;1.25;1.05;;;18.70;99.90;;;;;;5033931;28;20032;-78
2023/07/30 05:15:08;;;;;;;1.15;1.05;;;18.70;99.90;;;;;;5032875;28;20029;-79
2023/07/30 05:17:34;;;;;;;2.88;1.35;;;18.70;99.90;;;;;;5033517;28;20542;-79
2023/07/30 05:20:00;;;;;;;2.05;1.30;;;18.70;99.90;;;;;;5033001;28;20040;-78
2023/07/30 05:22:25;;;;;;;1.02;0.98;;;18.70;99.90;;;;;;5033651;28;20029;-79
2023/07/30 05:24:51;;;;;;;2.50;1.63;;;18.70;99.90;;;;;;5034378;28;20021;-79
2023/07/30 05:27:16;;;;;;;4.88;1.13;;;18.70;99.90;;;;;;5034210;28;20052;-78
2023/07/30 05:29:42;;;;;;;1.17;0.95;;;18.70;99.90;;;;;;5033765;28;20664;-78
2023/07/30 05:32:08;;;;;;;1.60;1.05;;;18.80;99.90;;;;;;5035998;28;20404;-78
2023/07/30 05:34:34;;;;;;;2.03;1.13;;;18.80;99.90;;;;;;5034477;28;20079;-79
2023/07/30 05:37:00;;;;;;;1.33;1.20;;;18.80;99.90;;;;;;5034894;28;20029;-79
2023/07/30 05:39:26;;;;;;;1.95;1.33;;;18.70;99.90;;;;;;5034033;28;20024;-79
2023/07/30 05:41:51;;;;;;;3.50;2.42;;;18.70;99.90;;;;;;5035478;28;20044;-79
2023/07/30 05:44:17;;;;;;;2.65;1.23;;;18.80;99.90;;;;;;5035296;28;20515;-77
2023/07/30 05:46:43;;;;;;;4.63;1.50;;;18.80;99.90;;;;;;5032051;28;20036;-78
2023/07/30 05:49:08;;;;;;;1.80;1.27;;;20.00;99.90;;;;;;5031311;28;20025;-78
2023/07/30 05:51:34;;;;;;;0.98;0.98;;;20.20;99.90;;;;;;5031494;28;20065;-76
2023/07/30 05:54:00;;;;;;;1.55;1.08;;;20.20;99.90;;;;;;5030177;28;20021;-77
2023/07/30 05:56:25;;;;;;;0.90;0.90;;;20.20;99.90;;;;;;5031722;28;20028;-78
2023/07/30 05:58:51;;;;;;;0.98;0.98;;;20.50;99.90;;;;;;5031678;28;20527;-78
2023/07/30 06:01:17;;;;;;;3.85;1.05;;;20.70;99.90;;;;;;5031504;28;20032;-77
2023/07/30 06:03:42;;;;;;;1.38;0.90;;;21.10;99.90;;;;;;5031564;28;20487;-78
2023/07/30 06:06:08;;;;;;;1.10;1.00;;;21.20;99.90;;;;;;5031484;28;20025;-78
2023/07/30 06:08:34;;;;;;;1.55;1.25;;;20.90;99.90;;;;;;5030293;28;20026;-78
2023/07/30 06:11:03;;;;;;;1.10;1.00;;;21.00;99.90;;;;;;5031389;28;20029;-79
2023/07/30 06:13:29;;;;;;;1.55;1.35;;;21.00;99.90;;;;;;5030222;28;20032;-78
2023/07/30 06:15:55;;;;;;;2.15;1.52;;;21.20;99.90;;;;;;5031368;28;20384;-77
2023/07/30 06:18:21;;;;;;;2.30;1.00;;;21.00;99.90;;;;;;5031565;28;20041;-77
2023/07/30 06:20:46;;;;;;;1.00;0.80;;;20.90;99.90;;;;;;5031324;28;20036;-77
2023/07/30 06:23:12;;;;;;;1.45;1.35;;;21.00;99.90;;;;;;5030159;28;20030;-78
2023/07/30 06:25:38;;;;;;;2.58;2.05;;;20.90;99.90;;;;;;5030074;28;20163;-77
2023/07/30 06:28:05;;;;;;;2.53;1.58;;;20.80;99.90;;;;;;5030130;28;20030;-77
2023/07/30 06:30:32;;;;;;;6.00;1.42;;;21.10;99.90;;;;;;5031186;28;20072;-78
2023/07/30 06:32:57;;;;;;;1.33;1.08;;;21.00;99.90;;;;;;5031309;28;20022;-78
2023/07/30 06:35:23;;;;;;;1.92;1.35;;;20.80;99.90;;;;;;5031091;28;20151;-77
2023/07/30 06:37:50;;;;;;;3.85;1.20;;;20.90;99.90;;;;;;5030067;28;20055;-77
2023/07/30 06:40:16;;;;;;;2.17;1.17;;;20.80;99.90;;;;;;5029813;28;20632;-77
2023/07/30 06:42:41;;;;;;;1.27;1.08;;;20.80;99.90;;;;;;5031348;28;20030;-77
2023/07/30 06:45:08;;;;;;;1.15;1.00;;;20.80;99.90;;;;;;5030960;28;20408;-77
2023/07/30 06:47:33;;;;;;;1.20;1.02;;;20.70;99.90;;;;;;5031351;28;20033;-77
2023/07/30 06:49:59;;;;;;;1.83;1.45;;;21.00;99.90;;;;;;5033483;28;20048;-78
2023/07/30 06:52:24;;;;;;;1.63;1.23;;;20.80;99.90;;;;;;5037020;28;20116;-79
2023/07/30 06:54:50;;;;;;;1.42;1.33;;;20.60;99.90;;;;;;5034730;28;20026;-78
2023/07/30 06:57:16;;;;;;;3.03;2.13;;;20.40;99.90;;;;;;5034299;28;20025;-79
2023/07/30 06:59:42;;;;;;;1.83;1.70;;;20.20;99.90;;;;;;5034337;28;20033;-78
2023/07/30 07:02:07;;;;;;;1.90;1.00;;;20.10;99.90;;;;;;5034651;28;20022;-79
2023/07/30 07:04:33;;;;;;;2.63;0.90;;;20.00;99.90;;;;;;5034234;28;20060;-79
2023/07/30 07:06:59;;;;;;;2.80;1.02;;;19.90;99.90;;;;;;5039394;28;20022;-79
2023/07/30 07:09:24;;;;;;;2.30;1.10;;;19.70;99.90;;;;;;5038545;28;20028;-79
2023/07/30 07:11:50;;;;;;;1.15;0.90;;;19.60;99.90;;;;;;5040286;28;20040;-78
2023/07/30 07:14:15;;;;;;;1.60;1.10;;;19.60;99.90;;;;;;5040830;28;20067;-78
2023/07/30 07:16:41;;;;;;;2.17;0.77;;;19.50;99.90;;;;;;5041031;28;20577;-79
2023/07/30 07:19:07;;;;;;;1.83;1.45;;;19.50;99.90;;;;;;5037590;28;20018;-78
2023/07/30 07:21:32;;;;;;;1.27;0.90;;;19.50;99.90;;;;;;5036419;28;20037;-79
2023/07/30 07:23:58;;;;;;;2.60;1.20;;;19.60;99.90;;;;;;5037340;28;20033;-79
2023/07/30 07:26:23;;;;;;;1.80;1.40;;;19.70;99.90;;;;;;5037084;28;20537;-78
2023/07/30 07:28:49;;;;;;;6.03;1.35;;;19.80;99.90;;;;;;5037511;28;20041;-78
2023/07/30 07:31:14;;;;;;;1.42;0.90;;;19.80;99.90;;;;;;5036089;28;20041;-80
2023/07/30 07:33:40;;;;;;;1.60;1.05;;;19.70;99.90;;;;;;5038458;28;20027;-78
2023/07/30 07:36:07;;;;;;;3.88;1.45;;;19.70;99.90;;;;;;5038649;28;20018;-80
2023/07/30 07:38:33;;;;;;;9.68;5.35;;;19.70;99.90;;;;;;5038027;28;20403;-79
2023/07/30 07:41:00;;;;;;;8.10;4.88;;;19.60;99.90;;;;;;5038595;28;20026;-79
2023/07/30 07:43:26;;;;;;;10.35;6.43;;;19.70;99.90;;;;;;5039165;28;20033;-78
2023/07/30 07:45:52;;;;;;;2.88;1.98;;;19.70;99.90;;;;;;5039039;28;20041;-78
2023/07/30 07:48:17;;;;;;;1.05;0.95;;;19.60;99.90;;;;;;5037334;28;20034;-79
2023/07/30 07:50:43;;;;;;;1.50;1.15;;;19.60;99.90;;;;;;5036767;28;20071;-79
2023/07/30 07:53:09;;;;;;;6.03;1.67;;;19.60;99.90;;;;;;5038841;28;20021;-78
2023/07/30 07:55:35;;;;;;;1.20;1.02;;;19.60;99.90;;;;;;5037394;28;20030;-77
2023/07/30 07:58:00;;;;;;;2.47;1.70;;;19.70;99.90;;;;;;5034530;28;20053;-77
2023/07/30 08:00:26;;;;;;;1.95;1.20;;;19.60;99.90;;;;;;5032465;28;20052;-77
2023/07/30 08:02:51;;;;;;;2.28;1.83;;;19.60;99.90;;;;;;5031686;28;20395;-78
2023/07/30 08:05:19;;;;;;;3.35;1.58;;;19.70;99.90;;;;;;5033355;28;20025;-78
2023/07/30 08:07:46;;;;;;;1.27;1.17;;;19.70;99.90;;;;;;5032577;28;20044;-77
2023/07/30 08:10:11;;;;;;;1.38;1.27;;;19.70;99.90;;;;;;5031880;28;20028;-77
2023/07/30 08:12:37;;;;;;;1.10;1.00;;;19.70;99.90;;;;;;5033520;28;20018;-76
2023/07/30 08:15:03;;;;;;;1.15;1.00;;;19.70;99.90;;;;;;5033180;28;20033;-77
2023/07/30 08:17:29;;;;;;;2.00;1.05;;;19.90;99.90;;;;;;5030978;28;20044;-77
2023/07/30 08:19:54;;;;;;;4.18;1.00;;;19.90;99.90;;;;;;5031782;28;20523;-77
2023/07/30 08:22:20;;;;;;;1.17;1.13;;;20.00;99.90;;;;;;5031986;28;20021;-77
2023/07/30 08:24:45;;;;;;;1.95;0.85;;;20.00;99.90;;;;;;5031734;28;20021;-78
2023/07/30 08:27:11;;;;;;;2.40;0.95;;;20.10;99.90;;;;;;5033095;28;20021;-77
2023/07/30 08:29:37;;;;;;;1.67;1.02;;;20.10;99.90;;;;;;5031810;28;20049;-77
2023/07/30 08:32:02;;;;;;;3.85;1.08;;;20.10;99.90;;;;;;5033078;28;20510;-77
2023/07/30 08:34:28;;;;;;;1.13;0.98;;;20.10;99.90;;;;;;5032981;28;20021;-77
2023/07/30 08:36:54;;;;;;;2.90;0.82;;;20.10;99.90;;;;;;5033029;28;20017;-78
2023/07/30 08:39:19;;;;;;;1.85;1.38;;;20.20;99.90;;;;;;5032968;28;20025;-77
2023/07/30 08:41:46;;;;;;;2.60;1.35;;;20.30;99.90;;;;;;5033118;28;20034;-78
2023/07/30 08:44:12;;;;;;;1.75;1.65;;;20.30;99.90;;;;;;5032750;28;20033;-77
2023/07/30 08:46:38;;;;;;;3.17;1.45;;;20.20;99.90;;;;;;5033050;28;20084;-77
2023/07/30 08:49:04;;;;;;;1.25;1.15;;;20.30;99.90;;;;;;5032935;28;20029;-76
2023/07/30 08:51:31;;;;;;;1.42;1.20;;;20.50;99.90;;;;;;5032784;28;20064;-77
2023/07/30 08:53:59;;;;;;;5.43;1.05;;;20.70;99.90;;;;;;5032577;28;20479;-78
2023/07/30 08:56:25;;;;;;;1.77;1.48;;;20.90;99.90;;;;;;5032729;28;20090;-77
2023/07/30 08:58:53;;;;;;;3.47;1.30;;;21.00;99.90;;;;;;5032292;28;20049;-77
2023/07/30 09:01:20;;;;;;;1.58;1.48;;;21.10;99.90;;;;;;5034950;28;20147;-77
2023/07/30 09:03:48;;;;;;;2.03;1.30;;;21.30;99.90;;;;;;5031134;28;20456;-78
2023/07/30 09:06:13;;;;;;;1.38;1.27;;;21.60;99.90;;;;;;5031470;28;20053;-77
2023/07/30 09:08:39;;;;;;;3.08;1.40;;;21.60;99.90;;;;;;5032675;28;20159;-77
2023/07/30 09:11:11;;;;;;;1.42;1.33;;;21.90;99.90;;;;;;5033311;28;20033;-77
2023/07/30 09:13:38;;;;;;;1.80;1.70;;;22.20;99.90;;;;;;5032615;28;20021;-77
2023/07/30 09:16:14;;;;;;;2.35;1.38;;;22.40;99.90;;;;;;5032504;28;20075;-78
2023/07/30 09:18:49;;;;;;;3.78;1.27;;;22.40;99.90;;;;;;5031755;28;20531;-77
2023/07/30 09:21:14;;;;;;;7.18;1.98;;;22.60;99.90;;;;;;5032686;28;20476;-77
2023/07/30 09:23:44;;;;;;;2.17;1.70;;;22.50;99.90;;;;;;5032562;28;20163;-78
2023/07/30 09:26:10;;;;;;;5.50;3.03;;;22.50;99.90;;;;;;5032339;28;20025;-78
2023/07/30 09:28:36;;;;;;;1.15;1.08;;;22.60;99.90;;;;;;5032544;28;20111;-78
2023/07/30 09:31:04;;;;;;;16.45;11.93;;;22.90;99.90;;;;;;5032842;28;20041;-78
2023/07/30 09:33:32;;;;;;;9.55;6.88;;;22.80;99.90;;;;;;5034343;28;20049;-78
2023/07/30 09:35:57;;;;;;;2.15;1.50;;;22.90;99.90;;;;;;5032018;28;20017;-77
2023/07/30 09:38:23;;;;;;;1.75;1.02;;;22.90;99.90;;;;;;5032230;28;20031;-79
2023/07/30 09:40:49;;;;;;;2.13;1.02;;;23.00;99.90;;;;;;5032748;28;20026;-79
2023/07/30 09:43:15;;;;;;;1.42;1.33;;;22.90;99.90;;;;;;5032780;28;20402;-78
2023/07/30 09:45:46;;;;;;;10.23;7.28;;;23.20;99.90;;;;;;5031949;28;20112;-79
2023/07/30 09:48:11;;;;;;;2.58;1.40;;;23.30;99.90;;;;;;5034827;28;20030;-76
2023/07/30 09:50:37;;;;;;;1.63;1.52;;;23.60;99.90;;;;;;5030944;28;20029;-77
2023/07/30 09:53:04;;;;;;;1.75;1.25;;;23.80;99.90;;;;;;5032179;28;20022;-78
2023/07/30 09:55:30;;;;;;;2.25;2.05;;;23.80;99.90;;;;;;5031715;28;20124;-78
2023/07/30 09:57:55;;;;;;;3.70;1.40;;;24.10;99.90;;;;;;5032028;28;20123;-77
2023/07/30 10:00:21;;;;;;;1.20;1.10;;;24.20;99.90;;;;;;5031617;28;20057;-78
2023/07/30 10:02:49;;;;;;;0.93;0.90;;;24.40;99.90;;;;;;5032471;28;20029;-78
2023/07/30 10:05:19;;;;;;;1.38;0.70;;;24.60;99.90;;;;;;5030798;28;20029;-77
2023/07/30 10:07:54;;;;;;;0.77;0.75;;;24.50;99.90;;;;;;5032168;28;20487;-78
2023/07/30 10:10:21;;;;;;;1.00;0.85;;;24.80;99.90;;;;;;5030556;28;20124;-78
2023/07/30 10:12:50;;;;;;;1.33;1.08;;;24.80;99.90;;;;;;5031945;28;20026;-79
2023/07/30 10:15:20;;;;;;;2.25;0.57;;;25.00;99.90;;;;;;5030074;28;20068;-78
2023/07/30 10:17:45;;;;;;;0.65;0.65;;;25.00;99.90;;;;;;5031967;28;20021;-78
2023/07/30 10:20:23;;;;;;;1.35;1.25;;;25.10;99.90;;;;;;5031723;28;20029;-77
2023/07/30 10:22:54;;;;;;;1.05;0.75;;;25.20;99.90;;;;;;5031789;28;20387;-78
2023/07/30 10:25:38;;;;;;;0.60;0.60;;;25.20;98.90;;;;;;5030528;28;20099;-78
2023/07/30 10:28:03;;;;;;;0.68;0.68;;;25.20;98.70;;;;;;5032239;28;20022;-79
2023/07/30 10:30:32;;;;;;;1.30;0.98;;;25.00;99.80;;;;;;5031533;28;20119;-77
2023/07/30 10:33:03;;;;;;;0.77;0.77;;;24.80;99.90;;;;;;5032790;28;20017;-78
2023/07/30 10:35:39;;;;;;;1.45;0.95;;;24.60;99.90;;;;;;5032415;28;20022;-78
2023/07/30 10:38:27;;;;;;;0.90;0.77;;;24.60;99.90;;;;;;5033636;28;20421;-78
2023/07/30 10:41:08;;;;;;;0.70;0.70;;;24.40;99.90;;;;;;5036159;28;20112;-78
2023/07/30 10:43:36;;;;;;;1.05;0.70;;;24.40;99.90;;;;;;5037305;28;20029;-78
2023/07/30 10:46:02;;;;;;;2.25;0.80;;;24.50;99.90;;;;;;5035860;28;20025;-78
2023/07/30 10:48:31;;;;;;;0.60;0.60;;;24.70;99.90;;;;;;5036995;28;20026;-78
2023/07/30 10:50:57;;;;;;;1.02;0.65;;;25.00;99.90;;;;;;5033222;28;20498;-78
2023/07/30 10:53:23;;;;;;;1.40;0.60;;;25.20;99.90;;;;;;5015602;28;20053;-78
2023/07/30 10:55:48;;;;;;;0.70;0.70;;;25.20;99.50;;;;;;5015394;28;20022;-79
2023/07/30 10:58:16;;;;;;;0.47;0.47;;;25.20;99.90;;;;;;5017220;28;20032;-79
2023/07/30 11:00:42;;;;;;;0.80;0.80;;;25.10;99.90;;;;;;5017367;28;20029;-79
2023/07/30 11:03:07;;;;;;;0.70;0.70;;;25.40;99.90;;;;;;5017948;28;20582;-78
2023/07/30 11:05:33;;;;;;;0.60;0.60;;;25.50;99.90;;;;;;5015962;28;20080;-79
2023/07/30 11:07:59;;;;;;;0.65;0.65;;;25.90;99.90;;;;;;5014721;28;20030;-78
2023/07/30 11:10:24;;;;;;;0.73;0.63;;;25.90;97.20;;;;;;5013536;28;20065;-77
2023/07/30 11:12:51;;;;;;;2.33;0.60;;;25.90;96.90;;;;;;5013724;28;20388;-77
2023/07/30 11:15:16;;;;;;;1.95;0.65;;;26.00;97.30;;;;;;5015164;28;20105;-78
2023/07/30 11:17:44;;;;;;;0.65;0.60;;;26.10;97.50;;;;;;5013804;28;20112;-77
2023/07/30 11:20:22;;;;;;;0.73;0.60;;;26.10;96.50;;;;;;5014860;28;20025;-77
2023/07/30 11:22:48;;;;;;;0.65;0.50;;;26.20;96.20;;;;;;5015521;28;20083;-77
2023/07/30 11:25:17;;;;;;;0.40;0.40;;;26.30;96.10;;;;;;5013969;28;20479;-79
2023/07/30 11:27:50;;;;;;;0.70;0.70;;;26.30;94.50;;;;;;5013881;28;20030;-77
2023/07/30 11:30:16;;;;;;;1.05;0.73;;;26.10;94.70;;;;;;5013244;28;20037;-78
2023/07/30 11:32:44;;;;;;;0.43;0.43;;;26.00;94.90;;;;;;5013661;28;20113;-77
2023/07/30 11:35:14;;;;;;;1.10;0.65;;;26.00;95.70;;;;;;5013663;28;20112;-77
2023/07/30 11:37:42;;;;;;;0.73;0.73;;;26.00;99.90;;;;;;5014600;28;20053;-77
2023/07/30 11:40:09;;;;;;;1.30;0.57;;;26.00;99.90;;;;;;5014393;28;20018;-77
2023/07/30 11:42:36;;;;;;;0.68;0.68;;;25.90;99.90;;;;;;5013676;28;20033;-77
2023/07/30 11:45:37;;;;;;;0.68;0.57;;;25.80;99.90;;;;;;5014644;28;20116;-78
2023/07/30 11:48:11;;;;;;;0.63;0.63;;;25.70;99.90;;;;;;4973578;28;20027;-78
2023/07/30 11:51:03;;;;;;;0.50;0.50;;;25.70;99.90;;;;;;5009466;28;20034;-79
2023/07/30 11:53:47;;;;;;;0.70;0.70;;;25.70;99.90;;;;;;5013718;28;20029;-79
2023/07/30 11:56:21;;;;;;;0.55;0.43;;;25.90;99.90;;;;;;5015074;28;20025;-78
2023/07/30 11:58:48;;;;;;;0.85;0.50;;;26.30;99.90;;;;;;5015694;28;20056;-79
2023/07/30 12:01:15;;;;;;;0.98;0.77;;;26.50;99.30;;;;;;5017019;28;20492;-78
2023/07/30 12:03:41;;;;;;;0.82;0.40;;;26.70;97.60;;;;;;5016154;28;20104;-78
2023/07/30 12:06:09;;;;;;;0.50;0.50;;;27.00;94.80;;;;;;5014299;28;20072;-79
2023/07/30 12:08:35;;;;;;;0.40;0.40;;;26.80;95.30;;;;;;5015567;28;20115;-78
2023/07/30 12:11:09;;;;;;;0.90;0.50;;;26.90;93.80;;;;;;5014095;28;20484;-78
2023/07/30 12:13:45;;;;;;;0.63;0.50;;;27.10;93.70;;;;;;5014299;28;20021;-78
2023/07/30 12:16:11;;;;;;;0.30;0.30;;;27.10;93.90;;;;;;5015477;28;20041;-79
2023/07/30 12:18:37;;;;;;;0.60;0.47;;;27.20;92.60;;;;;;5014125;28;20022;-79
2023/07/30 12:21:06;;;;;;;0.70;0.47;;;27.00;92.30;;;;;;5014208;28;20022;-78
2023/07/30 12:23:32;;;;;;;0.70;0.68;;;26.90;93.30;;;;;;5015718;28;20498;-78
2023/07/30 12:25:57;;;;;;;0.63;0.40;;;27.00;91.30;;;;;;5015486;28;20026;-79
2023/07/30 12:28:23;;;;;;;0.43;0.43;;;27.20;90.40;;;;;;5015107;28;20108;-79
2023/07/30 12:30:49;;;;;;;0.60;0.60;;;27.00;94.10;;;;;;5013620;28;20040;-78
2023/07/30 12:33:14;;;;;;;0.50;0.50;;;26.90;96.80;;;;;;5013357;28;20026;-78
2023/07/30 12:35:40;;;;;;;2.40;1.02;;;26.50;97.50;;;;;;5015972;28;20017;-78
2023/07/30 12:38:05;;;;;;;0.80;0.80;;;26.20;99.90;;;;;;5013637;28;20029;-79
2023/07/30 12:40:33;;;;;;;1.35;1.10;;;25.80;99.60;;;;;;5013228;28;20034;-78
2023/07/30 12:43:01;;;;;;;0.93;0.70;;;25.50;99.90;;;;;;5014016;28;20104;-77